createdAt,value
2018-12-02T00:00:49.906Z,19.90
2018-12-02T00:01:49.905Z,16.90
2018-12-02T00:02:49.893Z,18.90
2018-12-02T00:03:49.879Z,17.60
2018-12-02T00:04:49.935Z,21.90
2018-12-02T00:05:49.882Z,18.20
2018-12-02T00:06:49.881Z,19.50
2018-12-02T00:07:49.861Z,19.40
2018-12-02T00:08:49.909Z,17.80
2018-12-02T00:09:49.845Z,21.60
2018-12-02T00:10:49.855Z,19.70
2018-12-02T00:11:49.842Z,17.00
2018-12-02T00:12:49.817Z,16.80
2018-12-02T00:13:49.834Z,15.60
2018-12-02T00:14:49.816Z,19.40
2018-12-02T00:15:49.867Z,18.10
2018-12-02T00:16:49.800Z,25.00
2018-12-02T00:17:49.823Z,22.90
2018-12-02T00:18:49.794Z,22.30
2018-12-02T00:19:49.795Z,25.10
2018-12-02T00:20:49.789Z,29.70
2018-12-02T00:21:49.813Z,31.00
2018-12-02T00:22:50.622Z,31.00
2018-12-02T00:23:49.773Z,33.50
2018-12-02T00:24:49.804Z,34.60
2018-12-02T00:25:49.756Z,27.90
2018-12-02T00:26:49.750Z,30.50
2018-12-02T00:27:49.723Z,32.20
2018-12-02T00:28:49.723Z,32.30
2018-12-02T00:29:49.739Z,39.10
2018-12-02T00:30:49.696Z,33.10
2018-12-02T00:31:49.725Z,25.70
2018-12-02T00:32:49.711Z,26.20
2018-12-02T00:33:49.700Z,28.60
2018-12-02T00:34:49.700Z,30.30
2018-12-02T00:35:49.706Z,32.10
2018-12-02T00:36:49.670Z,26.50
2018-12-02T00:37:49.669Z,35.50
2018-12-02T00:38:49.658Z,32.90
2018-12-02T00:39:49.705Z,29.70
2018-12-02T00:40:49.697Z,39.70
2018-12-02T00:41:49.631Z,38.40
2018-12-02T00:42:49.665Z,37.00
2018-12-02T00:43:49.635Z,40.30
2018-12-02T00:44:49.628Z,35.90
2018-12-02T00:45:49.627Z,34.40
2018-12-02T00:46:49.607Z,35.10
2018-12-02T00:47:49.602Z,33.20
2018-12-02T00:48:49.616Z,33.40
2018-12-02T00:49:49.596Z,29.00
2018-12-02T00:50:49.625Z,24.50
2018-12-02T00:51:49.569Z,24.10
2018-12-02T00:52:49.556Z,27.40
2018-12-02T00:53:49.611Z,27.80
2018-12-02T00:54:49.578Z,28.40
2018-12-02T00:55:49.558Z,35.30
2018-12-02T00:56:49.531Z,40.90
2018-12-02T00:57:49.542Z,33.50
2018-12-02T00:58:49.537Z,31.30
2018-12-02T00:59:49.538Z,32.90
2018-12-02T01:00:49.500Z,37.30
2018-12-02T01:01:49.507Z,35.30
2018-12-02T01:02:49.511Z,33.10
2018-12-02T01:03:49.483Z,36.50
2018-12-02T01:04:49.498Z,38.30
2018-12-02T01:05:49.483Z,41.00
2018-12-02T01:06:53.564Z,40.50
2018-12-02T01:07:49.462Z,41.30
2018-12-02T01:08:49.471Z,41.90
2018-12-02T01:09:49.504Z,43.30
2018-12-02T01:10:49.458Z,45.30
2018-12-02T01:11:49.488Z,43.60
2018-12-02T01:12:49.436Z,49.90
2018-12-02T01:13:49.476Z,48.00
2018-12-02T01:14:49.415Z,46.60
2018-12-02T01:15:49.426Z,46.40
2018-12-02T01:16:49.418Z,46.60
2018-12-02T01:17:49.391Z,41.40
2018-12-02T01:18:49.383Z,45.50
2018-12-02T01:19:49.369Z,42.50
2018-12-02T01:20:49.372Z,43.40
2018-12-02T01:21:49.380Z,35.80
2018-12-02T01:22:49.364Z,36.20
2018-12-02T01:23:49.361Z,39.30
2018-12-02T01:24:49.362Z,34.40
2018-12-02T01:25:49.390Z,30.60
2018-12-02T01:26:49.329Z,39.00
2018-12-02T01:27:49.344Z,33.50
2018-12-02T01:28:49.340Z,40.20
2018-12-02T01:29:49.319Z,36.30
2018-12-02T01:30:49.309Z,31.50
2018-12-02T01:31:49.306Z,31.30
2018-12-02T01:32:49.291Z,33.00
2018-12-02T01:33:49.302Z,30.00
2018-12-02T01:34:49.305Z,34.40
2018-12-02T01:35:49.288Z,32.90
2018-12-02T01:36:49.262Z,31.10
2018-12-02T01:37:49.281Z,34.50
2018-12-02T01:38:49.260Z,38.60
2018-12-02T01:39:49.240Z,35.80
2018-12-02T01:40:49.253Z,43.10
2018-12-02T01:41:49.232Z,36.60
2018-12-02T01:42:49.225Z,38.60
2018-12-02T01:43:49.226Z,45.70
2018-12-02T01:44:49.209Z,33.40
2018-12-02T01:45:49.218Z,41.30
2018-12-02T01:46:49.200Z,38.60
2018-12-02T01:47:49.214Z,36.00
2018-12-02T01:48:49.182Z,31.70
2018-12-02T01:49:49.204Z,31.90
2018-12-02T01:50:49.183Z,42.50
2018-12-02T01:51:49.171Z,41.40
2018-12-02T01:52:49.160Z,43.10
2018-12-02T01:53:49.147Z,44.30
2018-12-02T01:54:49.154Z,43.20
2018-12-02T01:55:49.134Z,42.10
2018-12-02T01:56:49.144Z,39.00
2018-12-02T01:57:49.125Z,40.90
2018-12-02T01:58:49.106Z,37.30
2018-12-02T01:59:49.127Z,41.50
2018-12-02T02:00:49.112Z,40.70
2018-12-02T02:01:49.112Z,52.80
2018-12-02T02:02:49.138Z,34.70
2018-12-02T02:03:49.076Z,32.70
2018-12-02T02:04:49.096Z,38.20
2018-12-02T02:05:49.072Z,36.10
2018-12-02T02:06:49.068Z,35.10
2018-12-02T02:07:49.040Z,39.30
2018-12-02T02:08:49.046Z,38.50
2018-12-02T02:09:49.032Z,37.10
2018-12-02T02:10:49.021Z,35.70
2018-12-02T02:11:49.038Z,44.50
2018-12-02T02:12:49.057Z,43.60
2018-12-02T02:13:49.026Z,45.40
2018-12-02T02:14:49.005Z,43.50
2018-12-02T02:15:49.003Z,43.70
2018-12-02T02:16:48.983Z,46.90
2018-12-02T02:17:48.985Z,42.30
2018-12-02T02:18:49.018Z,44.60
2018-12-02T02:19:48.974Z,43.80
2018-12-02T02:20:48.997Z,46.50
2018-12-02T02:21:49.003Z,47.70
2018-12-02T02:22:48.940Z,46.70
2018-12-02T02:23:49.807Z,49.20
2018-12-02T02:24:48.945Z,53.90
2018-12-02T02:25:48.948Z,58.30
2018-12-02T02:26:48.900Z,52.90
2018-12-02T02:27:48.901Z,50.70
2018-12-02T02:28:48.899Z,57.00
2018-12-02T02:29:48.912Z,49.40
2018-12-02T02:30:48.902Z,47.60
2018-12-02T02:31:48.895Z,54.80
2018-12-02T02:32:48.872Z,55.60
2018-12-02T02:33:48.870Z,56.10
2018-12-02T02:34:48.861Z,64.10
2018-12-02T02:35:48.910Z,57.90
2018-12-02T02:36:48.848Z,53.80
2018-12-02T02:37:48.860Z,54.30
2018-12-02T02:38:48.878Z,48.40
2018-12-02T02:39:48.868Z,42.50
2018-12-02T02:40:48.802Z,45.40
2018-12-02T02:41:48.819Z,56.60
2018-12-02T02:42:48.813Z,57.40
2018-12-02T02:43:48.807Z,47.00
2018-12-02T02:44:48.798Z,52.60
2018-12-02T02:45:48.832Z,48.70
2018-12-02T02:46:48.787Z,47.70
2018-12-02T02:47:48.789Z,52.60
2018-12-02T02:48:48.767Z,51.70
2018-12-02T02:49:48.743Z,60.80
2018-12-02T02:50:48.761Z,48.60
2018-12-02T02:51:48.744Z,45.50
2018-12-02T02:52:48.742Z,54.00
2018-12-02T02:53:48.730Z,46.80
2018-12-02T02:54:48.723Z,51.00
2018-12-02T02:55:48.720Z,44.30
2018-12-02T02:56:48.710Z,42.80
2018-12-02T02:57:48.706Z,47.10
2018-12-02T02:58:48.689Z,47.80
2018-12-02T02:59:48.719Z,47.30
2018-12-02T03:00:48.683Z,47.00
2018-12-02T03:01:48.672Z,45.40
2018-12-02T03:02:48.660Z,52.10
2018-12-02T03:03:48.662Z,49.60
2018-12-02T03:04:48.652Z,48.40
2018-12-02T03:05:48.634Z,56.00
2018-12-02T03:06:48.619Z,52.00
2018-12-02T03:07:48.634Z,63.70
2018-12-02T03:08:48.622Z,59.80
2018-12-02T03:09:48.622Z,59.30
2018-12-02T03:10:48.597Z,61.90
2018-12-02T03:11:48.616Z,58.40
2018-12-02T03:12:48.650Z,67.90
2018-12-02T03:13:48.582Z,70.50
2018-12-02T03:14:48.578Z,65.50
2018-12-02T03:15:48.547Z,78.40
2018-12-02T03:16:48.601Z,66.80
2018-12-02T03:17:48.582Z,67.70
2018-12-02T03:18:48.530Z,56.70
2018-12-02T03:19:48.542Z,55.90
2018-12-02T03:20:48.538Z,53.10
2018-12-02T03:21:48.532Z,51.10
2018-12-02T03:22:48.528Z,53.30
2018-12-02T03:23:48.525Z,48.60
2018-12-02T03:24:48.518Z,52.80
2018-12-02T03:25:48.492Z,49.30
2018-12-02T03:26:48.477Z,41.40
2018-12-02T03:27:48.485Z,50.30
2018-12-02T03:28:48.518Z,49.80
2018-12-02T03:29:48.454Z,49.30
2018-12-02T03:30:48.461Z,51.30
2018-12-02T03:31:48.450Z,45.80
2018-12-02T03:32:48.465Z,44.40
2018-12-02T03:33:48.428Z,47.30
2018-12-02T03:34:48.420Z,46.70
2018-12-02T03:35:48.473Z,44.30
2018-12-02T03:36:48.416Z,46.10
2018-12-02T03:37:48.459Z,47.40
2018-12-02T03:38:48.407Z,48.60
2018-12-02T03:39:48.382Z,57.60
2018-12-02T03:40:48.384Z,51.30
2018-12-02T03:41:48.379Z,58.00
2018-12-02T03:42:48.367Z,44.80
2018-12-02T03:43:48.397Z,60.60
2018-12-02T03:44:48.364Z,69.20
2018-12-02T03:45:48.362Z,60.00
2018-12-02T03:46:48.333Z,60.00
2018-12-02T03:47:48.381Z,66.70
2018-12-02T03:48:48.326Z,51.10
2018-12-02T03:49:48.305Z,59.00
2018-12-02T03:50:48.360Z,60.80
2018-12-02T03:51:48.318Z,68.20
2018-12-02T03:52:48.304Z,51.00
2018-12-02T03:53:48.293Z,62.70
2018-12-02T03:54:48.289Z,50.50
2018-12-02T03:55:48.281Z,55.70
2018-12-02T03:56:48.281Z,56.80
2018-12-02T03:57:48.256Z,57.60
2018-12-02T03:58:48.276Z,49.00
2018-12-02T03:59:48.245Z,71.90
2018-12-02T04:00:48.263Z,66.20
2018-12-02T04:01:48.234Z,69.80
2018-12-02T04:02:48.229Z,72.90
2018-12-02T04:03:48.213Z,76.70
2018-12-02T04:04:48.227Z,68.20
2018-12-02T04:05:48.218Z,60.30
2018-12-02T04:06:48.212Z,61.50
2018-12-02T04:07:48.230Z,63.80
2018-12-02T04:08:48.198Z,55.50
2018-12-02T04:09:48.187Z,65.60
2018-12-02T04:10:48.158Z,58.30
2018-12-02T04:11:48.177Z,54.60
2018-12-02T04:12:48.199Z,61.30
2018-12-02T04:13:48.198Z,61.00
2018-12-02T04:14:48.128Z,62.70
2018-12-02T04:15:48.134Z,67.30
2018-12-02T04:16:48.120Z,70.30
2018-12-02T04:17:48.120Z,69.90
2018-12-02T04:18:48.117Z,70.50
2018-12-02T04:19:48.118Z,57.30
2018-12-02T04:20:48.104Z,67.20
2018-12-02T04:21:48.100Z,67.20
2018-12-02T04:22:48.120Z,75.60
2018-12-02T04:23:48.097Z,71.90
2018-12-02T04:24:48.112Z,70.30
2018-12-02T04:25:48.070Z,80.30
2018-12-02T04:26:48.312Z,75.30
2018-12-02T04:27:48.052Z,70.20
2018-12-02T04:28:48.057Z,73.30
2018-12-02T04:29:48.016Z,74.00
2018-12-02T04:30:48.045Z,76.20
2018-12-02T04:31:48.018Z,78.20
2018-12-02T04:32:48.018Z,72.00
2018-12-02T04:33:48.015Z,79.00
2018-12-02T04:34:48.020Z,82.40
2018-12-02T04:35:48.034Z,76.80
2018-12-02T04:36:47.980Z,77.50
2018-12-02T04:37:47.992Z,85.00
2018-12-02T04:38:47.962Z,83.30
2018-12-02T04:39:47.969Z,77.30
2018-12-02T04:40:47.969Z,78.40
2018-12-02T04:41:47.940Z,60.20
2018-12-02T04:42:47.954Z,76.80
2018-12-02T04:43:47.942Z,83.40
2018-12-02T04:44:47.915Z,73.10
2018-12-02T04:45:47.914Z,76.20
2018-12-02T04:46:47.910Z,71.20
2018-12-02T04:47:47.903Z,75.90
2018-12-02T04:48:47.906Z,69.80
2018-12-02T04:49:47.883Z,63.50
2018-12-02T04:50:47.884Z,67.40
2018-12-02T04:51:47.878Z,74.50
2018-12-02T04:52:47.909Z,70.80
2018-12-02T04:53:47.865Z,66.60
2018-12-02T04:54:47.847Z,78.20
2018-12-02T04:55:47.860Z,65.10
2018-12-02T04:56:47.833Z,72.90
2018-12-02T04:57:47.826Z,58.80
2018-12-02T04:58:48.073Z,65.90
2018-12-02T04:59:47.867Z,58.70
2018-12-02T05:00:47.818Z,60.30
2018-12-02T05:01:47.818Z,64.90
2018-12-02T05:02:47.786Z,62.70
2018-12-02T05:03:47.782Z,64.70
2018-12-02T05:04:47.787Z,73.70
2018-12-02T05:05:47.791Z,75.00
2018-12-02T05:06:47.773Z,74.80
2018-12-02T05:07:47.757Z,59.20
2018-12-02T05:08:47.771Z,60.30
2018-12-02T05:09:47.758Z,68.90
2018-12-02T05:10:47.774Z,55.00
2018-12-02T05:11:47.718Z,55.00
2018-12-02T05:12:47.718Z,61.10
2018-12-02T05:13:47.754Z,63.90
2018-12-02T05:14:47.695Z,55.40
2018-12-02T05:15:47.701Z,49.00
2018-12-02T05:16:47.702Z,54.10
2018-12-02T05:17:47.687Z,59.80
2018-12-02T05:18:47.668Z,64.40
2018-12-02T05:19:47.919Z,54.60
2018-12-02T05:20:47.709Z,56.10
2018-12-02T05:21:47.659Z,57.10
2018-12-02T05:22:47.698Z,53.00
2018-12-02T05:23:47.651Z,59.70
2018-12-02T05:24:47.647Z,63.50
2018-12-02T05:25:47.638Z,53.90
2018-12-02T05:26:47.631Z,52.90
2018-12-02T05:27:47.620Z,57.50
2018-12-02T05:28:47.643Z,49.80
2018-12-02T05:29:47.587Z,54.30
2018-12-02T05:30:47.580Z,64.30
2018-12-02T05:31:47.578Z,55.50
2018-12-02T05:32:47.600Z,59.20
2018-12-02T05:33:47.563Z,48.70
2018-12-02T05:34:47.574Z,51.80
2018-12-02T05:35:47.543Z,40.10
2018-12-02T05:36:47.561Z,36.50
2018-12-02T05:37:47.535Z,36.10
2018-12-02T05:38:47.524Z,31.50
2018-12-02T05:39:47.542Z,37.50
2018-12-02T05:40:47.522Z,33.90
2018-12-02T05:41:47.510Z,40.80
2018-12-02T05:42:47.490Z,25.90
2018-12-02T05:43:47.513Z,26.50
2018-12-02T05:44:47.479Z,31.40
2018-12-02T05:45:47.487Z,33.20
2018-12-02T05:46:47.475Z,25.20
2018-12-02T05:47:47.462Z,31.90
2018-12-02T05:48:47.459Z,33.00
2018-12-02T05:49:47.457Z,26.70
2018-12-02T05:50:47.440Z,28.50
2018-12-02T05:51:47.441Z,27.00
2018-12-02T05:52:47.436Z,27.70
2018-12-02T05:53:47.410Z,26.10
2018-12-02T05:54:47.421Z,28.50
2018-12-02T05:55:47.403Z,28.40
2018-12-02T05:56:47.387Z,30.20
2018-12-02T05:57:47.381Z,32.60
2018-12-02T05:58:47.383Z,29.00
2018-12-02T05:59:47.382Z,27.20
2018-12-02T06:00:47.351Z,30.30
2018-12-02T06:01:47.361Z,23.60
2018-12-02T06:02:47.359Z,24.40
2018-12-02T06:03:47.334Z,26.60
2018-12-02T06:04:47.348Z,24.90
2018-12-02T06:05:47.311Z,29.20
2018-12-02T06:06:47.318Z,27.00
2018-12-02T06:07:47.319Z,32.30
2018-12-02T06:08:47.348Z,22.90
2018-12-02T06:09:47.303Z,27.40
2018-12-02T06:10:47.307Z,21.80
2018-12-02T06:11:47.285Z,23.10
2018-12-02T06:12:47.277Z,20.80
2018-12-02T06:13:47.252Z,24.30
2018-12-02T06:14:47.303Z,20.70
2018-12-02T06:15:47.251Z,26.50
2018-12-02T06:16:47.292Z,22.20
2018-12-02T06:17:47.224Z,26.50
2018-12-02T06:18:47.232Z,26.50
2018-12-02T06:19:47.232Z,24.90
2018-12-02T06:20:47.201Z,22.90
2018-12-02T06:21:47.216Z,26.30
2018-12-02T06:22:47.172Z,20.80
2018-12-02T06:23:47.209Z,20.80
2018-12-02T06:24:47.524Z,20.20
2018-12-02T06:25:47.152Z,18.20
2018-12-02T06:26:47.171Z,19.40
2018-12-02T06:27:47.146Z,23.10
2018-12-02T06:28:47.128Z,29.50
2018-12-02T06:29:47.184Z,22.10
2018-12-02T06:30:47.236Z,19.50
2018-12-02T06:31:47.134Z,19.30
2018-12-02T06:32:47.093Z,24.80
2018-12-02T06:33:47.153Z,23.00
2018-12-02T06:34:47.146Z,21.70
2018-12-02T06:35:47.103Z,23.90
2018-12-02T06:36:47.085Z,16.80
2018-12-02T06:37:47.081Z,19.50
2018-12-02T06:38:47.063Z,21.50
2018-12-02T06:39:47.065Z,19.50
2018-12-02T06:40:47.041Z,15.80
2018-12-02T06:41:47.061Z,18.50
2018-12-02T06:42:47.030Z,20.30
2018-12-02T06:43:47.069Z,18.30
2018-12-02T06:44:47.032Z,15.40
2018-12-02T06:45:47.005Z,13.80
2018-12-02T06:46:47.001Z,15.30
2018-12-02T06:47:46.988Z,12.30
2018-12-02T06:48:46.988Z,13.10
2018-12-02T06:49:46.990Z,12.80
2018-12-02T06:50:47.015Z,14.20
2018-12-02T06:51:46.967Z,13.10
2018-12-02T06:52:46.945Z,13.80
2018-12-02T06:53:46.934Z,12.80
2018-12-02T06:54:46.930Z,13.50
2018-12-02T06:55:46.917Z,13.50
2018-12-02T06:56:46.919Z,13.90
2018-12-02T06:57:46.914Z,13.10
2018-12-02T06:58:46.904Z,12.30
2018-12-02T06:59:46.891Z,13.40
2018-12-02T07:00:46.869Z,12.90
2018-12-02T07:01:46.866Z,16.40
2018-12-02T07:02:46.860Z,18.60
2018-12-02T07:03:46.866Z,13.00
2018-12-02T07:04:46.889Z,17.50
2018-12-02T07:05:46.850Z,16.80
2018-12-02T07:06:46.818Z,12.30
2018-12-02T07:07:46.824Z,15.50
2018-12-02T07:08:46.823Z,15.80
2018-12-02T07:09:46.801Z,17.30
2018-12-02T07:10:46.812Z,19.90
2018-12-02T07:11:46.796Z,17.20
2018-12-02T07:12:46.791Z,17.20
2018-12-02T07:13:46.776Z,17.10
2018-12-02T07:14:46.774Z,18.40
2018-12-02T07:15:46.772Z,22.10
2018-12-02T07:16:46.743Z,16.30
2018-12-02T07:17:46.756Z,16.30
2018-12-02T07:18:46.741Z,11.60
2018-12-02T07:19:46.726Z,16.40
2018-12-02T07:20:46.748Z,14.60
2018-12-02T07:21:46.725Z,11.50
2018-12-02T07:22:46.716Z,21.10
2018-12-02T07:23:46.683Z,14.00
2018-12-02T07:24:46.702Z,15.70
2018-12-02T07:25:46.683Z,15.90
2018-12-02T07:26:46.713Z,18.20
2018-12-02T07:27:46.662Z,16.50
2018-12-02T07:28:46.951Z,16.40
2018-12-02T07:29:46.649Z,14.60
2018-12-02T07:30:46.624Z,17.20
2018-12-02T07:31:46.623Z,13.80
2018-12-02T07:32:46.603Z,16.00
2018-12-02T07:33:46.616Z,18.00
2018-12-02T07:34:46.612Z,16.30
2018-12-02T07:35:46.572Z,15.10
2018-12-02T07:36:46.584Z,15.40
2018-12-02T07:37:46.572Z,14.40
2018-12-02T07:38:46.570Z,15.30
2018-12-02T07:39:46.854Z,17.40
2018-12-02T07:40:46.544Z,15.90
2018-12-02T07:41:46.562Z,23.40
2018-12-02T07:42:46.531Z,24.40
2018-12-02T07:43:46.536Z,20.70
2018-12-02T07:44:46.532Z,23.40
2018-12-02T07:45:46.511Z,23.50
2018-12-02T07:46:46.478Z,23.50
2018-12-02T07:47:46.488Z,22.80
2018-12-02T07:48:46.501Z,20.80
2018-12-02T07:49:46.473Z,16.10
2018-12-02T07:50:46.714Z,17.90
2018-12-02T07:51:46.460Z,18.10
2018-12-02T07:52:46.453Z,16.40
2018-12-02T07:53:46.451Z,19.20
2018-12-02T07:54:46.423Z,19.10
2018-12-02T07:55:46.429Z,20.60
2018-12-02T07:56:46.406Z,20.60
2018-12-02T07:57:46.404Z,22.60
2018-12-02T07:58:46.382Z,23.60
2018-12-02T07:59:46.373Z,23.70
2018-12-02T08:00:46.369Z,26.70
2018-12-02T08:01:46.387Z,23.60
2018-12-02T08:02:46.349Z,26.40
2018-12-02T08:03:46.348Z,31.70
2018-12-02T08:04:46.353Z,21.00
2018-12-02T08:05:46.329Z,19.80
2018-12-02T08:06:46.322Z,25.60
2018-12-02T08:07:46.321Z,19.80
2018-12-02T08:08:46.311Z,26.00
2018-12-02T08:09:46.313Z,23.10
2018-12-02T08:10:46.287Z,24.40
2018-12-02T08:11:46.295Z,30.20
2018-12-02T08:12:46.334Z,30.90
2018-12-02T08:13:46.263Z,28.60
2018-12-02T08:14:46.307Z,33.50
2018-12-02T08:15:46.268Z,23.70
2018-12-02T08:16:46.261Z,23.10
2018-12-02T08:17:46.226Z,31.90
2018-12-02T08:18:46.239Z,23.00
2018-12-02T08:19:46.230Z,31.40
2018-12-02T08:20:46.213Z,23.10
2018-12-02T08:21:46.195Z,27.40
2018-12-02T08:22:51.114Z,23.80
2018-12-02T08:23:46.172Z,28.30
2018-12-02T08:24:46.175Z,24.40
2018-12-02T08:25:46.164Z,32.80
2018-12-02T08:26:46.150Z,22.50
2018-12-02T08:27:46.132Z,25.40
2018-12-02T08:28:46.126Z,25.10
2018-12-02T08:29:46.117Z,28.80
2018-12-02T08:30:46.121Z,26.90
2018-12-02T08:31:46.112Z,24.00
2018-12-02T08:32:46.113Z,26.40
2018-12-02T08:33:46.089Z,38.70
2018-12-02T08:34:46.096Z,29.20
2018-12-02T08:35:46.079Z,32.60
2018-12-02T08:36:46.067Z,26.70
2018-12-02T08:37:46.047Z,23.10
2018-12-02T08:38:46.038Z,31.50
2018-12-02T08:39:46.045Z,25.90
2018-12-02T08:40:46.032Z,23.50
2018-12-02T08:41:46.061Z,27.30
2018-12-02T08:42:46.253Z,24.00
2018-12-02T08:43:46.015Z,28.30
2018-12-02T08:44:46.013Z,30.70
2018-12-02T08:45:45.989Z,24.50
2018-12-02T08:46:45.997Z,28.40
2018-12-02T08:47:45.984Z,21.40
2018-12-02T08:48:45.948Z,21.30
2018-12-02T08:49:45.965Z,30.10
2018-12-02T08:50:45.955Z,26.10
2018-12-02T08:51:45.932Z,35.90
2018-12-02T08:52:45.928Z,30.50
2018-12-02T08:53:46.167Z,27.80
2018-12-02T08:54:45.907Z,26.50
2018-12-02T08:55:45.942Z,26.70
2018-12-02T08:56:45.874Z,19.60
2018-12-02T08:57:45.895Z,20.10
2018-12-02T08:58:45.862Z,17.70
2018-12-02T08:59:45.883Z,17.60
2018-12-02T09:00:45.866Z,17.60
2018-12-02T09:01:45.852Z,17.20
2018-12-02T09:02:45.884Z,18.70
2018-12-02T09:03:45.835Z,14.10
2018-12-02T09:04:45.868Z,17.10
2018-12-02T09:05:45.820Z,12.90
2018-12-02T09:06:45.801Z,13.20
2018-12-02T09:07:45.787Z,16.00
2018-12-02T09:08:45.809Z,12.10
2018-12-02T09:09:45.816Z,12.30
2018-12-02T09:10:46.414Z,10.40
2018-12-02T09:11:45.762Z,9.60
2018-12-02T09:12:45.750Z,5.60
2018-12-02T09:13:45.743Z,6.50
2018-12-02T09:14:45.728Z,5.70
2018-12-02T09:15:45.728Z,6.60
2018-12-02T09:16:45.735Z,5.40
2018-12-02T09:17:45.740Z,6.60
2018-12-02T09:18:45.699Z,5.80
2018-12-02T09:19:45.707Z,7.20
2018-12-02T09:20:45.708Z,7.00
2018-12-02T09:21:45.708Z,5.10
2018-12-02T09:22:45.654Z,6.00
2018-12-02T09:23:47.457Z,6.60
2018-12-02T09:24:45.662Z,6.40
2018-12-02T09:25:45.649Z,8.00
2018-12-02T09:26:45.677Z,7.30
2018-12-02T09:27:45.652Z,7.10
2018-12-02T09:28:45.619Z,6.60
2018-12-02T09:29:45.640Z,5.70
2018-12-02T09:30:45.614Z,6.00
2018-12-02T09:31:45.611Z,5.60
2018-12-02T09:32:45.611Z,5.40
2018-12-02T09:33:45.604Z,5.90
2018-12-02T09:34:45.594Z,7.40
2018-12-02T09:35:45.593Z,7.50
2018-12-02T09:36:45.569Z,7.70
2018-12-02T09:37:45.572Z,6.30
2018-12-02T09:38:45.567Z,7.30
2018-12-02T09:39:45.585Z,7.30
2018-12-02T09:40:45.544Z,6.60
2018-12-02T09:41:45.536Z,5.90
2018-12-02T09:42:45.500Z,5.80
2018-12-02T09:43:45.503Z,6.30
2018-12-02T09:44:45.549Z,6.50
2018-12-02T09:45:45.499Z,6.90
2018-12-02T09:46:45.501Z,7.20
2018-12-02T09:47:45.493Z,7.50
2018-12-02T09:48:45.488Z,7.00
2018-12-02T09:49:45.449Z,5.90
2018-12-02T09:50:45.458Z,7.30
2018-12-02T09:51:45.452Z,6.80
2018-12-02T09:52:45.437Z,6.50
2018-12-02T09:53:45.449Z,6.50
2018-12-02T09:54:45.475Z,6.50
2018-12-02T09:55:45.724Z,7.60
2018-12-02T09:56:45.411Z,6.90
2018-12-02T09:57:45.418Z,9.20
2018-12-02T09:58:45.378Z,8.30
2018-12-02T09:59:45.402Z,8.10
2018-12-02T10:00:45.383Z,9.50
2018-12-02T10:01:45.385Z,7.30
2018-12-02T10:02:45.378Z,7.10
2018-12-02T10:03:45.359Z,7.80
2018-12-02T10:04:45.340Z,6.20
2018-12-02T10:05:45.383Z,6.70
2018-12-02T10:06:45.640Z,5.50
2018-12-02T10:07:45.334Z,6.70
2018-12-02T10:08:45.367Z,6.40
2018-12-02T10:09:45.318Z,6.30
2018-12-02T10:10:45.317Z,6.10
2018-12-02T10:11:45.303Z,5.60
2018-12-02T10:12:45.286Z,5.60
2018-12-02T10:13:45.276Z,6.20
2018-12-02T10:14:45.267Z,6.50
2018-12-02T10:15:45.274Z,6.50
2018-12-02T10:16:45.242Z,5.70
2018-12-02T10:17:45.243Z,5.80
2018-12-02T10:18:45.251Z,7.30
2018-12-02T10:19:45.208Z,6.10
2018-12-02T10:20:45.247Z,8.10
2018-12-02T10:21:45.211Z,5.20
2018-12-02T10:22:45.257Z,5.60
2018-12-02T10:23:45.202Z,5.10
2018-12-02T10:24:45.204Z,5.10
2018-12-02T10:25:45.162Z,5.90
2018-12-02T10:26:45.202Z,5.40
2018-12-02T10:27:45.147Z,5.30
2018-12-02T10:28:45.171Z,6.20
2018-12-02T10:29:45.148Z,6.10
2018-12-02T10:30:45.156Z,5.60
2018-12-02T10:31:45.135Z,4.50
2018-12-02T10:32:45.133Z,4.20
2018-12-02T10:33:45.119Z,4.00
2018-12-02T10:34:45.089Z,3.70
2018-12-02T10:35:45.089Z,3.30
2018-12-02T10:36:45.081Z,3.30
2018-12-02T10:37:45.107Z,4.00
2018-12-02T10:38:45.080Z,3.20
2018-12-02T10:39:45.073Z,3.80
2018-12-02T10:40:45.067Z,3.40
2018-12-02T10:41:45.108Z,4.00
2018-12-02T10:42:45.076Z,3.70
2018-12-02T10:43:45.330Z,3.10
2018-12-02T10:44:45.023Z,3.00
2018-12-02T10:45:45.010Z,4.10
2018-12-02T10:46:45.015Z,4.00
2018-12-02T10:47:45.000Z,3.80
2018-12-02T10:48:45.015Z,2.90
2018-12-02T10:49:45.012Z,2.90
2018-12-02T10:50:44.992Z,3.80
2018-12-02T10:51:44.977Z,3.80
2018-12-02T10:52:44.983Z,3.30
2018-12-02T10:53:44.979Z,3.60
2018-12-02T10:54:45.219Z,3.70
2018-12-02T10:55:44.956Z,3.90
2018-12-02T10:56:44.956Z,3.60
2018-12-02T10:57:44.978Z,4.00
2018-12-02T10:58:44.956Z,4.00
2018-12-02T10:59:44.898Z,3.60
2018-12-02T11:00:44.890Z,3.40
2018-12-02T11:01:44.913Z,3.30
2018-12-02T11:02:44.911Z,3.90
2018-12-02T11:03:44.912Z,3.20
2018-12-02T11:04:44.887Z,3.60
2018-12-02T11:05:44.881Z,3.80
2018-12-02T11:06:44.869Z,3.50
2018-12-02T11:07:44.848Z,4.30
2018-12-02T11:08:44.850Z,4.80
2018-12-02T11:09:44.855Z,6.10
2018-12-02T11:10:45.083Z,6.10
2018-12-02T11:11:45.052Z,5.30
2018-12-02T11:12:44.811Z,4.90
2018-12-02T11:13:44.812Z,5.60
2018-12-02T11:14:44.854Z,5.50
2018-12-02T11:15:44.802Z,5.00
2018-12-02T11:16:44.808Z,4.70
2018-12-02T11:17:44.797Z,4.20
2018-12-02T11:18:44.770Z,3.70
2018-12-02T11:19:44.773Z,2.90
2018-12-02T11:20:44.812Z,3.10
2018-12-02T11:21:44.766Z,3.60
2018-12-02T11:22:44.756Z,2.90
2018-12-02T11:23:44.757Z,3.80
2018-12-02T11:24:44.741Z,3.50
2018-12-02T11:25:44.727Z,3.40
2018-12-02T11:26:44.713Z,4.00
2018-12-02T11:27:44.702Z,4.70
2018-12-02T11:28:44.702Z,4.90
2018-12-02T11:29:44.697Z,5.10
2018-12-02T11:30:44.703Z,6.40
2018-12-02T11:31:44.691Z,6.10
2018-12-02T11:32:44.681Z,6.10
2018-12-02T11:33:44.689Z,6.00
2018-12-02T11:34:44.668Z,5.30
2018-12-02T11:35:44.707Z,4.60
2018-12-02T11:36:44.672Z,5.30
2018-12-02T11:37:44.643Z,4.60
2018-12-02T11:38:44.704Z,3.80
2018-12-02T11:39:44.645Z,3.30
2018-12-02T11:40:44.617Z,3.10
2018-12-02T11:41:44.616Z,3.80
2018-12-02T11:42:44.625Z,3.50
2018-12-02T11:43:44.610Z,3.50
2018-12-02T11:44:44.593Z,3.40
2018-12-02T11:45:44.609Z,3.50
2018-12-02T11:46:44.579Z,2.60
2018-12-02T11:47:44.578Z,3.00
2018-12-02T11:48:44.572Z,3.20
2018-12-02T11:49:44.578Z,2.70
2018-12-02T11:50:44.548Z,2.40
2018-12-02T11:51:44.562Z,2.20
2018-12-02T11:52:44.567Z,2.20
2018-12-02T11:53:44.529Z,2.40
2018-12-02T11:54:44.530Z,2.40
2018-12-02T11:55:44.554Z,2.40
2018-12-02T11:56:44.519Z,2.30
2018-12-02T11:57:44.515Z,1.90
2018-12-02T11:58:44.517Z,2.10
2018-12-02T11:59:44.512Z,2.30
2018-12-02T12:00:44.510Z,2.30
2018-12-02T12:01:44.499Z,2.40
2018-12-02T12:02:44.498Z,2.80
2018-12-02T12:03:44.482Z,2.80
2018-12-02T12:04:44.471Z,2.30
2018-12-02T12:05:44.458Z,2.60
2018-12-02T12:06:44.470Z,3.00
2018-12-02T12:07:44.468Z,2.50
2018-12-02T12:08:44.438Z,2.60
2018-12-02T12:09:44.494Z,3.10
2018-12-02T12:10:44.434Z,2.30
2018-12-02T12:11:44.434Z,2.90
2018-12-02T12:12:44.477Z,2.40
2018-12-02T12:13:44.402Z,2.40
2018-12-02T12:14:44.414Z,2.60
2018-12-02T12:15:44.404Z,3.10
2018-12-02T12:16:44.404Z,3.10
2018-12-02T12:17:44.381Z,2.90
2018-12-02T12:18:44.390Z,3.00
2018-12-02T12:19:44.386Z,2.90
2018-12-02T12:20:44.381Z,2.30
2018-12-02T12:21:44.370Z,2.80
2018-12-02T12:22:44.354Z,2.30
2018-12-02T12:23:44.355Z,2.90
2018-12-02T12:24:44.350Z,2.60
2018-12-02T12:25:44.362Z,2.30
2018-12-02T12:26:44.396Z,2.30
2018-12-02T12:27:44.362Z,2.00
2018-12-02T12:28:44.317Z,1.90
2018-12-02T12:29:44.309Z,1.70
2018-12-02T12:30:44.334Z,1.60
2018-12-02T12:31:44.319Z,1.90
2018-12-02T12:32:44.317Z,1.70
2018-12-02T12:33:44.318Z,1.70
2018-12-02T12:34:44.295Z,1.60
2018-12-02T12:35:44.308Z,1.90
2018-12-02T12:36:44.303Z,1.40
2018-12-02T12:37:44.304Z,1.40
2018-12-02T12:38:44.278Z,1.70
2018-12-02T12:39:44.290Z,1.40
2018-12-02T12:40:44.283Z,1.50
2018-12-02T12:41:44.275Z,1.50
2018-12-02T12:42:44.280Z,1.40
2018-12-02T12:43:44.280Z,1.40
2018-12-02T12:44:44.265Z,1.40
2018-12-02T12:45:44.263Z,1.30
2018-12-02T12:46:44.238Z,1.30
2018-12-02T12:47:44.254Z,1.40
2018-12-02T12:48:44.263Z,1.30
2018-12-02T12:49:44.233Z,1.30
2018-12-02T12:50:44.223Z,1.40
2018-12-02T12:51:44.243Z,1.40
2018-12-02T12:52:44.232Z,1.60
2018-12-02T12:53:44.246Z,1.50
2018-12-02T12:54:44.231Z,1.50
2018-12-02T12:55:44.229Z,1.50
2018-12-02T12:56:44.221Z,1.50
2018-12-02T12:57:44.286Z,1.40
2018-12-02T12:58:44.229Z,1.40
2018-12-02T12:59:44.218Z,1.50
2018-12-02T13:00:44.205Z,1.30